sensor_id;sensor_type;location;lat;lon;timestamp;P1;durP1;ratioP1;P2;durP2;ratioP2
40072;SDS011;25774;52.256;9.356;2022-08-19T00:00:05;7.32;;;3.42;;
40072;SDS011;25774;52.256;9.356;2022-08-19T00:02:33;5.80;;;3.70;;
40072;SDS011;25774;52.256;9.356;2022-08-19T00:04:59;7.78;;;3.30;;
40072;SDS011;25774;52.256;9.356;2022-08-19T00:07:25;8.60;;;3.65;;
40072;SDS011;25774;52.256;9.356;2022-08-19T00:09:50;5.82;;;3.47;;
40072;SDS011;25774;52.256;9.356;2022-08-19T00:12:17;7.25;;;3.15;;
40072;SDS011;25774;52.256;9.356;2022-08-19T00:14:42;6.28;;;2.95;;
40072;SDS011;25774;52.256;9.356;2022-08-19T00:17:08;8.00;;;3.28;;
40072;SDS011;25774;52.256;9.356;2022-08-19T00:19:37;6.70;;;3.30;;
40072;SDS011;25774;52.256;9.356;2022-08-19T00:22:03;5.72;;;2.60;;
40072;SDS011;25774;52.256;9.356;2022-08-19T00:24:30;6.05;;;2.88;;
40072;SDS011;25774;52.256;9.356;2022-08-19T00:26:55;6.18;;;2.92;;
40072;SDS011;25774;52.256;9.356;2022-08-19T00:31:48;6.07;;;2.78;;
40072;SDS011;25774;52.256;9.356;2022-08-19T00:34:15;6.38;;;3.28;;
40072;SDS011;25774;52.256;9.356;2022-08-19T00:36:41;4.57;;;2.72;;
40072;SDS011;25774;52.256;9.356;2022-08-19T00:39:07;5.90;;;3.92;;
40072;SDS011;25774;52.256;9.356;2022-08-19T00:44:02;7.97;;;3.92;;
40072;SDS011;25774;52.256;9.356;2022-08-19T00:46:30;10.85;;;3.35;;
40072;SDS011;25774;52.256;9.356;2022-08-19T00:48:58;9.73;;;3.92;;
40072;SDS011;25774;52.256;9.356;2022-08-19T00:51:27;9.50;;;3.92;;
40072;SDS011;25774;52.256;9.356;2022-08-19T00:53:57;6.30;;;3.85;;
40072;SDS011;25774;52.256;9.356;2022-08-19T00:56:25;5.70;;;3.90;;
40072;SDS011;25774;52.256;9.356;2022-08-19T01:01:18;5.93;;;4.23;;
40072;SDS011;25774;52.256;9.356;2022-08-19T01:03:43;8.98;;;3.78;;
40072;SDS011;25774;52.256;9.356;2022-08-19T01:06:09;7.47;;;3.92;;
40072;SDS011;25774;52.256;9.356;2022-08-19T01:08:34;6.85;;;3.92;;
40072;SDS011;25774;52.256;9.356;2022-08-19T01:11:00;8.80;;;3.90;;
40072;SDS011;25774;52.256;9.356;2022-08-19T01:13:27;10.18;;;4.70;;
40072;SDS011;25774;52.256;9.356;2022-08-19T01:15:58;7.18;;;4.03;;
40072;SDS011;25774;52.256;9.356;2022-08-19T01:18:30;7.20;;;4.03;;
40072;SDS011;25774;52.256;9.356;2022-08-19T01:21:02;11.27;;;4.20;;
40072;SDS011;25774;52.256;9.356;2022-08-19T01:23:32;7.72;;;4.35;;
40072;SDS011;25774;52.256;9.356;2022-08-19T01:26:14;9.15;;;4.03;;
40072;SDS011;25774;52.256;9.356;2022-08-19T01:28:43;7.50;;;3.70;;
40072;SDS011;25774;52.256;9.356;2022-08-19T01:31:12;9.73;;;4.22;;
40072;SDS011;25774;52.256;9.356;2022-08-19T01:33:39;7.65;;;4.55;;
40072;SDS011;25774;52.256;9.356;2022-08-19T01:36:10;7.05;;;4.70;;
40072;SDS011;25774;52.256;9.356;2022-08-19T01:38:40;9.07;;;4.65;;
40072;SDS011;25774;52.256;9.356;2022-08-19T01:41:08;8.40;;;4.35;;
40072;SDS011;25774;52.256;9.356;2022-08-19T01:43:37;7.70;;;4.80;;
40072;SDS011;25774;52.256;9.356;2022-08-19T01:46:03;11.30;;;5.47;;
40072;SDS011;25774;52.256;9.356;2022-08-19T01:48:39;10.93;;;4.78;;
40072;SDS011;25774;52.256;9.356;2022-08-19T01:51:06;7.45;;;3.85;;
40072;SDS011;25774;52.256;9.356;2022-08-19T01:53:32;9.00;;;3.90;;
40072;SDS011;25774;52.256;9.356;2022-08-19T01:58:24;7.95;;;4.55;;
40072;SDS011;25774;52.256;9.356;2022-08-19T02:01:14;8.23;;;4.25;;
40072;SDS011;25774;52.256;9.356;2022-08-19T02:03:39;7.15;;;4.07;;
40072;SDS011;25774;52.256;9.356;2022-08-19T02:06:05;7.20;;;3.75;;
40072;SDS011;25774;52.256;9.356;2022-08-19T02:10:59;8.98;;;5.07;;
40072;SDS011;25774;52.256;9.356;2022-08-19T02:13:25;8.82;;;5.10;;
40072;SDS011;25774;52.256;9.356;2022-08-19T02:15:51;11.20;;;5.13;;
40072;SDS011;25774;52.256;9.356;2022-08-19T02:18:18;8.35;;;5.03;;
40072;SDS011;25774;52.256;9.356;2022-08-19T02:20:44;8.57;;;4.72;;
40072;SDS011;25774;52.256;9.356;2022-08-19T02:23:12;9.98;;;4.85;;
40072;SDS011;25774;52.256;9.356;2022-08-19T02:25:39;9.88;;;4.50;;
40072;SDS011;25774;52.256;9.356;2022-08-19T02:28:05;11.65;;;5.80;;
40072;SDS011;25774;52.256;9.356;2022-08-19T02:30:30;10.27;;;5.55;;
40072;SDS011;25774;52.256;9.356;2022-08-19T02:32:56;19.10;;;5.10;;
40072;SDS011;25774;52.256;9.356;2022-08-19T02:35:23;7.13;;;4.93;;
40072;SDS011;25774;52.256;9.356;2022-08-19T02:37:48;7.80;;;4.53;;
40072;SDS011;25774;52.256;9.356;2022-08-19T02:40:32;8.73;;;5.25;;
40072;SDS011;25774;52.256;9.356;2022-08-19T02:42:59;7.38;;;4.32;;
40072;SDS011;25774;52.256;9.356;2022-08-19T02:45:26;13.35;;;4.95;;
40072;SDS011;25774;52.256;9.356;2022-08-19T02:47:51;7.20;;;4.57;;
40072;SDS011;25774;52.256;9.356;2022-08-19T02:50:17;9.18;;;4.68;;
40072;SDS011;25774;52.256;9.356;2022-08-19T02:52:43;9.98;;;3.80;;
40072;SDS011;25774;52.256;9.356;2022-08-19T02:55:09;8.38;;;4.22;;
40072;SDS011;25774;52.256;9.356;2022-08-19T02:57:36;9.32;;;4.88;;
40072;SDS011;25774;52.256;9.356;2022-08-19T03:00:03;8.50;;;3.85;;
40072;SDS011;25774;52.256;9.356;2022-08-19T03:02:32;8.23;;;4.15;;
40072;SDS011;25774;52.256;9.356;2022-08-19T03:04:57;7.13;;;4.35;;
40072;SDS011;25774;52.256;9.356;2022-08-19T03:07:22;7.73;;;3.90;;
40072;SDS011;25774;52.256;9.356;2022-08-19T03:09:48;7.30;;;3.57;;
40072;SDS011;25774;52.256;9.356;2022-08-19T03:12:13;9.40;;;4.15;;
40072;SDS011;25774;52.256;9.356;2022-08-19T03:14:39;11.80;;;4.25;;
40072;SDS011;25774;52.256;9.356;2022-08-19T03:17:04;7.53;;;4.35;;
40072;SDS011;25774;52.256;9.356;2022-08-19T03:19:30;9.23;;;4.32;;
40072;SDS011;25774;52.256;9.356;2022-08-19T03:21:56;8.85;;;4.60;;
40072;SDS011;25774;52.256;9.356;2022-08-19T03:26:49;26.50;;;5.72;;
40072;SDS011;25774;52.256;9.356;2022-08-19T03:29:18;9.45;;;4.57;;
40072;SDS011;25774;52.256;9.356;2022-08-19T03:31:44;12.48;;;5.50;;
40072;SDS011;25774;52.256;9.356;2022-08-19T03:34:16;13.55;;;5.70;;
40072;SDS011;25774;52.256;9.356;2022-08-19T03:36:45;8.95;;;4.85;;
40072;SDS011;25774;52.256;9.356;2022-08-19T03:41:37;10.77;;;5.60;;
40072;SDS011;25774;52.256;9.356;2022-08-19T03:44:05;12.25;;;6.38;;
40072;SDS011;25774;52.256;9.356;2022-08-19T03:46:32;9.43;;;5.72;;
40072;SDS011;25774;52.256;9.356;2022-08-19T03:48:59;9.90;;;5.43;;
40072;SDS011;25774;52.256;9.356;2022-08-19T03:51:27;11.05;;;5.90;;
40072;SDS011;25774;52.256;9.356;2022-08-19T03:53:59;7.88;;;5.25;;
40072;SDS011;25774;52.256;9.356;2022-08-19T03:56:26;10.15;;;5.68;;
40072;SDS011;25774;52.256;9.356;2022-08-19T03:58:53;8.35;;;5.35;;
40072;SDS011;25774;52.256;9.356;2022-08-19T04:01:20;9.98;;;5.45;;
40072;SDS011;25774;52.256;9.356;2022-08-19T04:03:49;11.45;;;5.88;;
40072;SDS011;25774;52.256;9.356;2022-08-19T04:06:16;14.48;;;6.43;;
40072;SDS011;25774;52.256;9.356;2022-08-19T04:08:49;9.85;;;6.22;;
40072;SDS011;25774;52.256;9.356;2022-08-19T04:11:21;12.05;;;7.32;;
40072;SDS011;25774;52.256;9.356;2022-08-19T04:13:50;13.60;;;7.63;;
40072;SDS011;25774;52.256;9.356;2022-08-19T04:16:18;13.65;;;7.07;;
40072;SDS011;25774;52.256;9.356;2022-08-19T04:18:45;14.48;;;7.90;;
40072;SDS011;25774;52.256;9.356;2022-08-19T04:21:30;12.13;;;6.97;;
40072;SDS011;25774;52.256;9.356;2022-08-19T04:23:56;13.55;;;7.60;;
40072;SDS011;25774;52.256;9.356;2022-08-19T04:26:23;14.32;;;7.80;;
40072;SDS011;25774;52.256;9.356;2022-08-19T04:28:50;16.67;;;7.95;;
40072;SDS011;25774;52.256;9.356;2022-08-19T04:31:24;14.02;;;7.85;;
40072;SDS011;25774;52.256;9.356;2022-08-19T04:33:52;13.88;;;8.15;;
40072;SDS011;25774;52.256;9.356;2022-08-19T04:36:20;12.55;;;8.07;;
40072;SDS011;25774;52.256;9.356;2022-08-19T04:38:50;14.55;;;8.23;;
40072;SDS011;25774;52.256;9.356;2022-08-19T04:41:18;16.00;;;8.77;;
40072;SDS011;25774;52.256;9.356;2022-08-19T04:44:02;13.73;;;8.60;;
40072;SDS011;25774;52.256;9.356;2022-08-19T04:46:28;15.65;;;8.65;;
40072;SDS011;25774;52.256;9.356;2022-08-19T04:48:55;15.32;;;9.57;;
40072;SDS011;25774;52.256;9.356;2022-08-19T04:51:22;17.27;;;8.45;;
40072;SDS011;25774;52.256;9.356;2022-08-19T04:53:48;16.08;;;9.70;;
40072;SDS011;25774;52.256;9.356;2022-08-19T04:56:16;19.08;;;8.90;;
40072;SDS011;25774;52.256;9.356;2022-08-19T04:58:43;15.18;;;8.68;;
40072;SDS011;25774;52.256;9.356;2022-08-19T05:01:14;15.68;;;8.82;;
40072;SDS011;25774;52.256;9.356;2022-08-19T05:03:43;16.15;;;8.55;;
40072;SDS011;25774;52.256;9.356;2022-08-19T05:06:10;13.85;;;7.80;;
40072;SDS011;25774;52.256;9.356;2022-08-19T05:08:38;13.07;;;7.75;;
40072;SDS011;25774;52.256;9.356;2022-08-19T05:13:39;11.85;;;7.82;;
40072;SDS011;25774;52.256;9.356;2022-08-19T05:16:06;14.88;;;7.50;;
40072;SDS011;25774;52.256;9.356;2022-08-19T05:18:31;12.25;;;7.35;;
40072;SDS011;25774;52.256;9.356;2022-08-19T05:21:16;11.75;;;7.22;;
40072;SDS011;25774;52.256;9.356;2022-08-19T05:24:02;15.13;;;7.87;;
40072;SDS011;25774;52.256;9.356;2022-08-19T05:26:28;10.68;;;6.93;;
40072;SDS011;25774;52.256;9.356;2022-08-19T05:28:56;11.15;;;6.53;;
40072;SDS011;25774;52.256;9.356;2022-08-19T05:31:21;12.40;;;6.93;;
40072;SDS011;25774;52.256;9.356;2022-08-19T05:33:47;16.53;;;8.17;;
40072;SDS011;25774;52.256;9.356;2022-08-19T05:36:13;14.77;;;6.30;;
40072;SDS011;25774;52.256;9.356;2022-08-19T05:38:39;12.95;;;6.75;;
40072;SDS011;25774;52.256;9.356;2022-08-19T05:41:08;12.07;;;6.20;;
40072;SDS011;25774;52.256;9.356;2022-08-19T05:43:34;9.98;;;6.38;;
40072;SDS011;25774;52.256;9.356;2022-08-19T05:46:00;10.70;;;6.55;;
40072;SDS011;25774;52.256;9.356;2022-08-19T05:48:26;12.35;;;6.03;;
40072;SDS011;25774;52.256;9.356;2022-08-19T05:50:52;9.73;;;5.93;;
40072;SDS011;25774;52.256;9.356;2022-08-19T05:53:17;11.20;;;5.82;;
40072;SDS011;25774;52.256;9.356;2022-08-19T05:55:44;11.00;;;5.50;;
40072;SDS011;25774;52.256;9.356;2022-08-19T05:58:11;14.43;;;5.20;;
40072;SDS011;25774;52.256;9.356;2022-08-19T06:00:36;7.88;;;5.03;;
40072;SDS011;25774;52.256;9.356;2022-08-19T06:03:02;8.65;;;5.45;;
40072;SDS011;25774;52.256;9.356;2022-08-19T06:07:55;10.48;;;5.05;;
40072;SDS011;25774;52.256;9.356;2022-08-19T06:10:21;8.43;;;5.32;;
40072;SDS011;25774;52.256;9.356;2022-08-19T06:12:47;9.18;;;6.00;;
40072;SDS011;25774;52.256;9.356;2022-08-19T06:15:13;12.00;;;6.00;;
40072;SDS011;25774;52.256;9.356;2022-08-19T06:17:39;17.65;;;6.40;;
40072;SDS011;25774;52.256;9.356;2022-08-19T06:20:07;10.82;;;5.95;;
40072;SDS011;25774;52.256;9.356;2022-08-19T06:22:39;13.13;;;7.32;;
40072;SDS011;25774;52.256;9.356;2022-08-19T06:25:09;11.60;;;6.35;;
40072;SDS011;25774;52.256;9.356;2022-08-19T06:27:35;14.32;;;6.45;;
40072;SDS011;25774;52.256;9.356;2022-08-19T06:30:02;11.18;;;6.05;;
40072;SDS011;25774;52.256;9.356;2022-08-19T06:32:28;11.98;;;6.13;;
40072;SDS011;25774;52.256;9.356;2022-08-19T06:34:54;10.25;;;6.57;;
40072;SDS011;25774;52.256;9.356;2022-08-19T06:37:19;8.13;;;5.10;;
40072;SDS011;25774;52.256;9.356;2022-08-19T06:39:46;10.43;;;5.40;;
40072;SDS011;25774;52.256;9.356;2022-08-19T06:42:12;9.18;;;5.47;;
40072;SDS011;25774;52.256;9.356;2022-08-19T06:44:41;9.10;;;5.45;;
40072;SDS011;25774;52.256;9.356;2022-08-19T06:47:08;10.98;;;5.32;;
40072;SDS011;25774;52.256;9.356;2022-08-19T06:49:36;8.82;;;5.38;;
40072;SDS011;25774;52.256;9.356;2022-08-19T06:52:02;8.15;;;5.22;;
40072;SDS011;25774;52.256;9.356;2022-08-19T06:54:29;10.80;;;6.10;;
40072;SDS011;25774;52.256;9.356;2022-08-19T06:56:56;7.78;;;5.18;;
40072;SDS011;25774;52.256;9.356;2022-08-19T06:59:23;9.60;;;6.07;;
40072;SDS011;25774;52.256;9.356;2022-08-19T07:01:53;10.48;;;6.10;;
40072;SDS011;25774;52.256;9.356;2022-08-19T07:04:25;9.93;;;5.60;;
40072;SDS011;25774;52.256;9.356;2022-08-19T07:07:04;9.65;;;6.38;;
40072;SDS011;25774;52.256;9.356;2022-08-19T07:09:39;10.63;;;7.00;;
40072;SDS011;25774;52.256;9.356;2022-08-19T07:12:10;9.07;;;5.47;;
40072;SDS011;25774;52.256;9.356;2022-08-19T07:14:38;12.32;;;6.40;;
40072;SDS011;25774;52.256;9.356;2022-08-19T07:17:05;10.20;;;6.80;;
40072;SDS011;25774;52.256;9.356;2022-08-19T07:19:32;8.63;;;5.47;;
40072;SDS011;25774;52.256;9.356;2022-08-19T07:22:03;10.15;;;6.00;;
40072;SDS011;25774;52.256;9.356;2022-08-19T07:24:30;10.15;;;5.45;;
40072;SDS011;25774;52.256;9.356;2022-08-19T07:26:57;7.57;;;4.40;;
40072;SDS011;25774;52.256;9.356;2022-08-19T07:29:30;6.95;;;4.65;;
40072;SDS011;25774;52.256;9.356;2022-08-19T07:31:59;10.82;;;4.35;;
40072;SDS011;25774;52.256;9.356;2022-08-19T07:34:27;8.48;;;3.95;;
40072;SDS011;25774;52.256;9.356;2022-08-19T07:36:55;6.97;;;3.20;;
40072;SDS011;25774;52.256;9.356;2022-08-19T07:39:22;6.93;;;3.80;;
40072;SDS011;25774;52.256;9.356;2022-08-19T07:41:50;8.73;;;3.80;;
40072;SDS011;25774;52.256;9.356;2022-08-19T07:44:16;5.97;;;3.75;;
40072;SDS011;25774;52.256;9.356;2022-08-19T07:46:44;10.68;;;4.03;;
40072;SDS011;25774;52.256;9.356;2022-08-19T07:49:13;8.18;;;4.20;;
40072;SDS011;25774;52.256;9.356;2022-08-19T07:51:47;8.57;;;4.50;;
40072;SDS011;25774;52.256;9.356;2022-08-19T07:54:21;7.63;;;4.43;;
40072;SDS011;25774;52.256;9.356;2022-08-19T07:56:48;8.10;;;4.45;;
40072;SDS011;25774;52.256;9.356;2022-08-19T07:59:16;7.07;;;3.95;;
40072;SDS011;25774;52.256;9.356;2022-08-19T08:01:44;7.95;;;4.60;;
40072;SDS011;25774;52.256;9.356;2022-08-19T08:04:09;7.75;;;4.65;;
40072;SDS011;25774;52.256;9.356;2022-08-19T08:06:54;9.68;;;4.97;;
40072;SDS011;25774;52.256;9.356;2022-08-19T08:09:40;10.57;;;5.07;;
40072;SDS011;25774;52.256;9.356;2022-08-19T08:12:08;9.88;;;4.72;;
40072;SDS011;25774;52.256;9.356;2022-08-19T08:14:59;7.28;;;5.03;;
40072;SDS011;25774;52.256;9.356;2022-08-19T08:17:30;6.93;;;4.55;;
40072;SDS011;25774;52.256;9.356;2022-08-19T08:19:56;6.80;;;4.40;;
40072;SDS011;25774;52.256;9.356;2022-08-19T08:25:09;5.22;;;3.25;;
40072;SDS011;25774;52.256;9.356;2022-08-19T08:27:35;6.25;;;3.35;;
40072;SDS011;25774;52.256;9.356;2022-08-19T08:30:04;6.53;;;3.17;;
40072;SDS011;25774;52.256;9.356;2022-08-19T08:32:37;7.10;;;2.90;;
40072;SDS011;25774;52.256;9.356;2022-08-19T08:35:06;6.40;;;2.80;;
40072;SDS011;25774;52.256;9.356;2022-08-19T08:37:33;7.22;;;4.10;;
40072;SDS011;25774;52.256;9.356;2022-08-19T08:40:02;3.85;;;2.53;;
40072;SDS011;25774;52.256;9.356;2022-08-19T08:42:36;5.47;;;2.50;;
40072;SDS011;25774;52.256;9.356;2022-08-19T08:45:12;7.63;;;2.60;;
40072;SDS011;25774;52.256;9.356;2022-08-19T08:47:42;5.10;;;2.38;;
40072;SDS011;25774;52.256;9.356;2022-08-19T08:50:39;5.15;;;2.67;;
40072;SDS011;25774;52.256;9.356;2022-08-19T08:53:06;8.15;;;3.40;;
40072;SDS011;25774;52.256;9.356;2022-08-19T08:55:34;6.07;;;2.85;;
40072;SDS011;25774;52.256;9.356;2022-08-19T08:58:09;6.03;;;2.85;;
40072;SDS011;25774;52.256;9.356;2022-08-19T09:00:40;6.30;;;1.80;;
40072;SDS011;25774;52.256;9.356;2022-08-19T09:03:20;4.15;;;2.10;;
40072;SDS011;25774;52.256;9.356;2022-08-19T09:06:03;5.65;;;1.63;;
40072;SDS011;25774;52.256;9.356;2022-08-19T09:17:11;6.28;;;1.40;;
40072;SDS011;25774;52.256;9.356;2022-08-19T09:19:50;2.88;;;1.23;;
40072;SDS011;25774;52.256;9.356;2022-08-19T09:22:39;3.05;;;1.30;;
40072;SDS011;25774;52.256;9.356;2022-08-19T09:25:11;4.20;;;1.40;;
40072;SDS011;25774;52.256;9.356;2022-08-19T09:27:40;5.93;;;1.63;;
40072;SDS011;25774;52.256;9.356;2022-08-19T09:30:07;4.43;;;2.72;;
40072;SDS011;25774;52.256;9.356;2022-08-19T09:32:35;3.13;;;1.75;;
40072;SDS011;25774;52.256;9.356;2022-08-19T09:37:26;5.35;;;1.10;;
40072;SDS011;25774;52.256;9.356;2022-08-19T09:42:17;5.28;;;1.30;;
40072;SDS011;25774;52.256;9.356;2022-08-19T09:47:09;2.15;;;1.02;;
40072;SDS011;25774;52.256;9.356;2022-08-19T09:49:37;1.80;;;1.10;;
40072;SDS011;25774;52.256;9.356;2022-08-19T09:52:04;2.70;;;1.60;;
40072;SDS011;25774;52.256;9.356;2022-08-19T09:54:32;4.05;;;1.20;;
40072;SDS011;25774;52.256;9.356;2022-08-19T09:56:58;7.05;;;1.40;;
40072;SDS011;25774;52.256;9.356;2022-08-19T09:59:25;2.63;;;1.10;;
40072;SDS011;25774;52.256;9.356;2022-08-19T10:04:16;4.75;;;1.50;;
40072;SDS011;25774;52.256;9.356;2022-08-19T10:09:08;2.58;;;0.80;;
40072;SDS011;25774;52.256;9.356;2022-08-19T10:11:36;4.00;;;0.98;;
40072;SDS011;25774;52.256;9.356;2022-08-19T10:14:04;3.83;;;1.00;;
40072;SDS011;25774;52.256;9.356;2022-08-19T10:16:31;2.78;;;1.08;;
40072;SDS011;25774;52.256;9.356;2022-08-19T10:18:57;4.63;;;1.10;;
40072;SDS011;25774;52.256;9.356;2022-08-19T10:21:24;2.65;;;0.95;;
40072;SDS011;25774;52.256;9.356;2022-08-19T10:23:55;2.92;;;1.40;;
40072;SDS011;25774;52.256;9.356;2022-08-19T10:26:26;3.47;;;1.35;;
40072;SDS011;25774;52.256;9.356;2022-08-19T10:28:53;3.63;;;1.13;;
40072;SDS011;25774;52.256;9.356;2022-08-19T10:31:23;1.70;;;0.90;;
40072;SDS011;25774;52.256;9.356;2022-08-19T10:33:50;2.88;;;1.17;;
40072;SDS011;25774;52.256;9.356;2022-08-19T10:36:29;3.70;;;1.10;;
40072;SDS011;25774;52.256;9.356;2022-08-19T10:38:58;1.60;;;0.70;;
40072;SDS011;25774;52.256;9.356;2022-08-19T10:41:30;2.30;;;1.02;;
40072;SDS011;25774;52.256;9.356;2022-08-19T10:44:01;3.17;;;0.90;;
40072;SDS011;25774;52.256;9.356;2022-08-19T10:46:30;2.13;;;0.88;;
40072;SDS011;25774;52.256;9.356;2022-08-19T10:48:58;2.78;;;1.00;;
40072;SDS011;25774;52.256;9.356;2022-08-19T10:51:27;3.30;;;0.73;;
40072;SDS011;25774;52.256;9.356;2022-08-19T10:54:11;2.83;;;0.90;;
40072;SDS011;25774;52.256;9.356;2022-08-19T10:56:37;2.33;;;0.80;;
40072;SDS011;25774;52.256;9.356;2022-08-19T10:59:19;3.53;;;1.05;;
40072;SDS011;25774;52.256;9.356;2022-08-19T11:01:47;2.88;;;0.82;;
40072;SDS011;25774;52.256;9.356;2022-08-19T11:04:13;2.10;;;0.90;;
40072;SDS011;25774;52.256;9.356;2022-08-19T11:06:40;2.97;;;1.00;;
40072;SDS011;25774;52.256;9.356;2022-08-19T11:09:07;3.95;;;1.10;;
40072;SDS011;25774;52.256;9.356;2022-08-19T11:11:34;5.15;;;1.05;;
40072;SDS011;25774;52.256;9.356;2022-08-19T11:14:06;2.30;;;1.30;;
40072;SDS011;25774;52.256;9.356;2022-08-19T11:16:32;2.70;;;1.30;;
40072;SDS011;25774;52.256;9.356;2022-08-19T11:18:58;3.05;;;1.00;;
40072;SDS011;25774;52.256;9.356;2022-08-19T11:21:25;2.05;;;1.08;;
40072;SDS011;25774;52.256;9.356;2022-08-19T11:23:59;5.82;;;1.45;;
40072;SDS011;25774;52.256;9.356;2022-08-19T11:26:27;4.65;;;1.55;;
40072;SDS011;25774;52.256;9.356;2022-08-19T11:28:54;2.83;;;1.00;;
40072;SDS011;25774;52.256;9.356;2022-08-19T11:31:21;2.85;;;1.50;;
40072;SDS011;25774;52.256;9.356;2022-08-19T11:33:51;4.20;;;1.65;;
40072;SDS011;25774;52.256;9.356;2022-08-19T11:36:19;2.40;;;1.23;;
40072;SDS011;25774;52.256;9.356;2022-08-19T11:38:46;3.95;;;1.33;;
40072;SDS011;25774;52.256;9.356;2022-08-19T11:41:13;2.78;;;1.23;;
40072;SDS011;25774;52.256;9.356;2022-08-19T11:43:39;3.20;;;1.20;;
40072;SDS011;25774;52.256;9.356;2022-08-19T11:46:05;2.58;;;1.10;;
40072;SDS011;25774;52.256;9.356;2022-08-19T11:48:35;3.97;;;1.40;;
40072;SDS011;25774;52.256;9.356;2022-08-19T11:51:05;1.90;;;0.80;;
40072;SDS011;25774;52.256;9.356;2022-08-19T11:53:36;2.47;;;1.10;;
40072;SDS011;25774;52.256;9.356;2022-08-19T11:56:04;2.38;;;1.00;;
40072;SDS011;25774;52.256;9.356;2022-08-19T11:58:30;3.88;;;1.27;;
40072;SDS011;25774;52.256;9.356;2022-08-19T12:00:56;2.30;;;1.30;;
40072;SDS011;25774;52.256;9.356;2022-08-19T12:05:47;1.83;;;1.05;;
40072;SDS011;25774;52.256;9.356;2022-08-19T12:10:39;2.47;;;0.75;;
40072;SDS011;25774;52.256;9.356;2022-08-19T12:13:07;5.00;;;1.20;;
40072;SDS011;25774;52.256;9.356;2022-08-19T12:15:37;2.28;;;0.90;;
40072;SDS011;25774;52.256;9.356;2022-08-19T12:18:06;2.30;;;1.05;;
40072;SDS011;25774;52.256;9.356;2022-08-19T12:20:36;2.35;;;0.95;;
40072;SDS011;25774;52.256;9.356;2022-08-19T12:23:03;2.50;;;1.25;;
40072;SDS011;25774;52.256;9.356;2022-08-19T12:25:30;2.28;;;0.88;;
40072;SDS011;25774;52.256;9.356;2022-08-19T12:27:57;1.60;;;0.65;;
40072;SDS011;25774;52.256;9.356;2022-08-19T12:30:22;2.40;;;0.68;;
40072;SDS011;25774;52.256;9.356;2022-08-19T12:32:49;2.30;;;0.80;;
40072;SDS011;25774;52.256;9.356;2022-08-19T12:35:16;2.55;;;0.93;;
40072;SDS011;25774;52.256;9.356;2022-08-19T12:37:45;3.28;;;0.88;;
40072;SDS011;25774;52.256;9.356;2022-08-19T12:40:11;8.23;;;1.20;;
40072;SDS011;25774;52.256;9.356;2022-08-19T12:42:38;2.67;;;0.80;;
40072;SDS011;25774;52.256;9.356;2022-08-19T12:45:07;3.70;;;0.90;;
40072;SDS011;25774;52.256;9.356;2022-08-19T12:47:35;0.68;;;0.47;;
40072;SDS011;25774;52.256;9.356;2022-08-19T12:50:01;2.03;;;0.75;;
40072;SDS011;25774;52.256;9.356;2022-08-19T12:52:28;2.15;;;0.60;;
40072;SDS011;25774;52.256;9.356;2022-08-19T12:54:55;1.38;;;0.50;;
40072;SDS011;25774;52.256;9.356;2022-08-19T12:57:25;2.38;;;0.70;;
40072;SDS011;25774;52.256;9.356;2022-08-19T12:59:52;5.07;;;0.60;;
40072;SDS011;25774;52.256;9.356;2022-08-19T13:02:19;0.82;;;0.50;;
40072;SDS011;25774;52.256;9.356;2022-08-19T13:04:44;0.73;;;0.30;;
40072;SDS011;25774;52.256;9.356;2022-08-19T13:07:10;1.33;;;0.30;;
40072;SDS011;25774;52.256;9.356;2022-08-19T13:09:36;0.57;;;0.32;;
40072;SDS011;25774;52.256;9.356;2022-08-19T13:12:04;2.25;;;0.47;;
40072;SDS011;25774;52.256;9.356;2022-08-19T13:14:33;1.75;;;0.40;;
40072;SDS011;25774;52.256;9.356;2022-08-19T13:16:59;0.85;;;0.40;;
40072;SDS011;25774;52.256;9.356;2022-08-19T13:19:25;0.98;;;0.45;;
40072;SDS011;25774;52.256;9.356;2022-08-19T13:21:51;0.88;;;0.45;;
40072;SDS011;25774;52.256;9.356;2022-08-19T13:24:18;0.98;;;0.30;;
40072;SDS011;25774;52.256;9.356;2022-08-19T13:26:44;1.67;;;0.50;;
40072;SDS011;25774;52.256;9.356;2022-08-19T13:29:09;3.28;;;0.55;;
40072;SDS011;25774;52.256;9.356;2022-08-19T13:31:53;0.73;;;0.40;;
40072;SDS011;25774;52.256;9.356;2022-08-19T13:34:37;0.60;;;0.30;;
40072;SDS011;25774;52.256;9.356;2022-08-19T13:37:04;2.15;;;0.50;;
40072;SDS011;25774;52.256;9.356;2022-08-19T13:39:33;0.68;;;0.40;;
40072;SDS011;25774;52.256;9.356;2022-08-19T13:41:59;1.00;;;0.40;;
40072;SDS011;25774;52.256;9.356;2022-08-19T13:44:26;1.02;;;0.40;;
40072;SDS011;25774;52.256;9.356;2022-08-19T13:46:54;1.80;;;0.43;;
40072;SDS011;25774;52.256;9.356;2022-08-19T13:49:27;3.10;;;0.50;;
40072;SDS011;25774;52.256;9.356;2022-08-19T13:51:55;0.85;;;0.45;;
40072;SDS011;25774;52.256;9.356;2022-08-19T13:54:20;0.75;;;0.47;;
40072;SDS011;25774;52.256;9.356;2022-08-19T13:56:47;1.08;;;0.50;;
40072;SDS011;25774;52.256;9.356;2022-08-19T13:59:13;4.50;;;0.60;;
40072;SDS011;25774;52.256;9.356;2022-08-19T14:01:39;1.85;;;0.43;;
40072;SDS011;25774;52.256;9.356;2022-08-19T14:04:06;1.17;;;0.50;;
40072;SDS011;25774;52.256;9.356;2022-08-19T14:06:32;1.75;;;0.40;;
40072;SDS011;25774;52.256;9.356;2022-08-19T14:09:04;2.88;;;0.63;;
40072;SDS011;25774;52.256;9.356;2022-08-19T14:11:30;2.83;;;0.85;;
40072;SDS011;25774;52.256;9.356;2022-08-19T14:13:55;1.15;;;0.40;;
40072;SDS011;25774;52.256;9.356;2022-08-19T14:16:21;0.40;;;0.30;;
40072;SDS011;25774;52.256;9.356;2022-08-19T14:18:46;0.88;;;0.50;;
40072;SDS011;25774;52.256;9.356;2022-08-19T14:21:16;0.57;;;0.30;;
40072;SDS011;25774;52.256;9.356;2022-08-19T14:23:45;0.88;;;0.43;;
40072;SDS011;25774;52.256;9.356;2022-08-19T14:26:12;1.30;;;0.60;;
40072;SDS011;25774;52.256;9.356;2022-08-19T14:28:40;1.98;;;0.70;;
40072;SDS011;25774;52.256;9.356;2022-08-19T14:31:07;1.45;;;0.65;;
40072;SDS011;25774;52.256;9.356;2022-08-19T14:33:34;2.28;;;0.43;;
40072;SDS011;25774;52.256;9.356;2022-08-19T14:36:00;1.20;;;0.50;;
40072;SDS011;25774;52.256;9.356;2022-08-19T14:38:26;2.42;;;0.90;;
40072;SDS011;25774;52.256;9.356;2022-08-19T14:40:52;2.28;;;0.50;;
40072;SDS011;25774;52.256;9.356;2022-08-19T14:43:17;1.05;;;0.40;;
40072;SDS011;25774;52.256;9.356;2022-08-19T14:45:43;0.82;;;0.38;;
40072;SDS011;25774;52.256;9.356;2022-08-19T14:48:09;1.83;;;0.50;;
40072;SDS011;25774;52.256;9.356;2022-08-19T14:50:35;1.05;;;0.38;;
40072;SDS011;25774;52.256;9.356;2022-08-19T14:53:06;1.40;;;0.50;;
40072;SDS011;25774;52.256;9.356;2022-08-19T14:55:33;1.10;;;0.35;;
40072;SDS011;25774;52.256;9.356;2022-08-19T14:57:59;0.88;;;0.50;;
40072;SDS011;25774;52.256;9.356;2022-08-19T15:00:26;1.00;;;0.50;;
40072;SDS011;25774;52.256;9.356;2022-08-19T15:02:52;2.53;;;0.90;;
40072;SDS011;25774;52.256;9.356;2022-08-19T15:05:19;1.00;;;0.50;;
40072;SDS011;25774;52.256;9.356;2022-08-19T15:07:45;1.30;;;0.40;;
40072;SDS011;25774;52.256;9.356;2022-08-19T15:10:11;1.30;;;0.57;;
40072;SDS011;25774;52.256;9.356;2022-08-19T15:12:39;1.13;;;0.57;;
40072;SDS011;25774;52.256;9.356;2022-08-19T15:15:05;1.48;;;0.60;;
40072;SDS011;25774;52.256;9.356;2022-08-19T15:17:37;1.77;;;0.60;;
40072;SDS011;25774;52.256;9.356;2022-08-19T15:20:05;1.25;;;0.70;;
40072;SDS011;25774;52.256;9.356;2022-08-19T15:22:31;1.20;;;0.40;;
40072;SDS011;25774;52.256;9.356;2022-08-19T15:24:57;3.25;;;1.08;;
40072;SDS011;25774;52.256;9.356;2022-08-19T15:27:22;4.13;;;0.57;;
40072;SDS011;25774;52.256;9.356;2022-08-19T15:29:48;2.75;;;0.70;;
40072;SDS011;25774;52.256;9.356;2022-08-19T15:32:14;1.20;;;0.50;;
40072;SDS011;25774;52.256;9.356;2022-08-19T15:34:39;1.27;;;0.55;;
40072;SDS011;25774;52.256;9.356;2022-08-19T15:37:04;1.20;;;0.60;;
40072;SDS011;25774;52.256;9.356;2022-08-19T15:39:30;2.92;;;0.45;;
40072;SDS011;25774;52.256;9.356;2022-08-19T15:41:56;1.27;;;0.60;;